Time;durP1;ratioP1;P1;durP2;ratioP2;P2;SDS_P1;SDS_P2;PMS_P1;PMS_P2;Temp;Humidity;BMP_temperature;BMP_pressure;BME280_temperature;BME280_humidity;BME280_pressure;Samples;Min_cycle;Max_cycle;Signal;HPM_P1;HPM_P2
2022/05/25 00:01:52;;;;;;;;;1.00;1.00;;;;;16.64;56.81;101175.19;5069661;28;45325;-58
2022/05/25 00:04:18;;;;;;;;;1.00;1.00;;;;;16.64;56.84;101179.66;5064706;28;45270;-58
2022/05/25 00:06:44;;;;;;;;;1.00;1.00;;;;;16.63;56.81;101170.84;5070543;28;45245;-59
2022/05/25 00:09:11;;;;;;;;;1.00;1.00;;;;;16.63;57.06;101170.00;5070065;28;45361;-59
2022/05/25 00:11:36;;;;;;;;;1.00;1.00;;;;;16.62;57.25;101173.63;5069451;28;45314;-59
2022/05/25 00:14:03;;;;;;;;;4.00;2.00;;;;;16.61;57.21;101172.78;5069673;28;45296;-58
2022/05/25 00:16:29;;;;;;;;;1.00;1.00;;;;;16.62;57.24;101165.63;5070457;28;45363;-59
2022/05/25 00:21:38;;;;;;;;;2.00;1.00;;;;;16.60;57.26;101165.78;5066219;28;45465;-59
2022/05/25 00:24:04;;;;;;;;;2.00;2.00;;;;;16.56;57.32;101164.28;5070506;28;45261;-59
2022/05/25 00:26:33;;;;;;;;;2.00;1.00;;;;;16.56;57.56;101169.63;5067367;28;45365;-59
2022/05/25 00:28:58;;;;;;;;;3.00;1.00;;;;;16.52;57.54;101176.16;5060621;28;45251;-59
2022/05/25 00:31:24;;;;;;;;;2.00;2.00;;;;;16.46;57.75;101177.47;5060798;28;45378;-59
2022/05/25 00:33:49;;;;;;;;;2.50;2.00;;;;;16.44;57.82;101174.09;5060505;28;45263;-59
2022/05/25 00:36:16;;;;;;;;;2.00;2.00;;;;;16.44;58.12;101176.75;5060853;28;45299;-59
2022/05/25 00:38:41;;;;;;;;;2.00;1.50;;;;;16.45;57.89;101172.28;5060429;28;45370;-59
2022/05/25 00:41:07;;;;;;;;;3.00;2.00;;;;;16.46;57.96;101176.63;5060545;28;45362;-59
2022/05/25 00:43:33;;;;;;;;;1.00;1.00;;;;;16.46;57.99;101177.47;5060883;28;45455;-59
2022/05/25 00:46:08;;;;;;;;;2.00;2.00;;;;;16.42;58.17;101183.13;5060921;28;45314;-58
2022/05/25 00:48:56;;;;;;;;;1.00;1.00;;;;;16.38;58.23;101185.19;5060466;28;45404;-58
2022/05/25 00:51:28;;;;;;;;;2.00;2.00;;;;;16.37;58.12;101185.31;5060699;28;45410;-58
2022/05/25 00:54:18;;;;;;;;;2.00;2.00;;;;;16.38;58.20;101203.78;5060750;28;45470;-58
2022/05/25 00:56:48;;;;;;;;;4.25;4.25;;;;;16.38;58.21;101198.47;5060827;28;45537;-58
2022/05/25 00:59:31;;;;;;;;;2.00;2.00;;;;;16.39;58.23;101201.97;5060520;28;45354;-59
2022/05/25 01:01:58;;;;;;;;;3.00;3.00;;;;;16.38;58.41;101203.78;5060739;28;45648;-59
2022/05/25 01:04:25;;;;;;;;;5.00;4.00;;;;;16.40;58.26;101206.34;5058900;28;45535;-58
2022/05/25 01:07:18;;;;;;;;;7.00;5.00;;;;;16.36;58.56;101203.06;5060687;28;45406;-58
2022/05/25 01:10:07;;;;;;;;;9.75;7.25;;;;;16.34;58.65;101207.63;5060535;28;45645;-58
2022/05/25 01:13:03;;;;;;;;;10.00;9.00;;;;;16.32;58.75;101203.41;5067697;28;45331;-58
2022/05/25 01:15:47;;;;;;;;;12.00;8.00;;;;;16.30;58.93;101208.00;5063578;28;45274;-59
2022/05/25 01:18:31;;;;;;;;;12.75;9.25;;;;;16.29;59.03;101208.97;5063494;28;45394;-59
2022/05/25 01:21:14;;;;;;;;;8.75;8.00;;;;;16.26;59.05;101212.69;5066332;28;45345;-59
2022/05/25 01:23:42;;;;;;;;;9.00;8.50;;;;;16.23;59.07;101212.09;5068442;28;45362;-59
2022/05/25 01:26:27;;;;;;;;;9.25;8.25;;;;;16.20;59.27;101213.19;5067306;28;45161;-59
2022/05/25 01:29:11;;;;;;;;;6.50;6.00;;;;;16.19;59.23;101207.00;5063544;28;45625;-59
2022/05/25 01:31:44;;;;;;;;;9.25;8.50;;;;;16.17;59.50;101208.91;5063389;28;46205;-59
2022/05/25 01:34:34;;;;;;;;;9.25;9.25;;;;;16.15;59.46;101210.00;5063473;28;45216;-59
2022/05/25 01:37:18;;;;;;;;;3.00;3.00;;;;;16.10;59.62;101210.34;5063526;28;45425;-58
2022/05/25 01:40:02;;;;;;;;;1.00;1.00;;;;;16.07;59.42;101220.34;5063524;28;45446;-58
2022/05/25 01:42:33;;;;;;;;;4.00;3.00;;;;;16.03;59.67;101225.03;5063492;28;45425;-59
2022/05/25 01:45:05;;;;;;;;;3.25;3.00;;;;;16.04;59.96;101226.75;5063418;28;45279;-57
2022/05/25 01:47:33;;;;;;;;;2.00;2.00;;;;;16.04;59.87;101231.22;5063347;28;45321;-58
2022/05/25 01:50:11;;;;;;;;;4.00;2.75;;;;;16.01;59.54;101224.31;5063447;28;45351;-57
2022/05/25 01:52:48;;;;;;;;;4.00;3.25;;;;;16.03;59.81;101226.84;5063295;28;45481;-57
2022/05/25 01:55:20;;;;;;;;;1.50;1.00;;;;;16.02;60.05;101228.66;5062986;28;45236;-58
2022/05/25 01:57:50;;;;;;;;;1.25;1.00;;;;;16.01;59.89;101224.31;5063482;28;45493;-59
2022/05/25 02:00:39;;;;;;;;;2.25;1.75;;;;;16.00;60.06;101229.75;5063171;28;45394;-58
2022/05/25 02:06:29;;;;;;;;;1.00;1.00;;;;;15.96;59.91;101236.25;5062946;28;45234;-57
2022/05/25 02:09:23;;;;;;;;;2.50;2.00;;;;;15.95;60.04;101229.22;5054550;28;45299;-58
2022/05/25 02:12:14;;;;;;;;;1.00;1.00;;;;;15.94;59.80;101239.00;5071561;28;45389;-58
2022/05/25 02:14:58;;;;;;;;;2.00;1.00;;;;;15.92;60.31;101238.28;5030997;28;45434;-57
2022/05/25 02:17:52;;;;;;;;;1.00;1.00;;;;;15.89;60.19;101238.53;5062600;28;45260;-58
2022/05/25 02:20:55;;;;;;;;;2.25;1.50;;;;;15.84;60.49;101238.84;5062909;28;45576;-57
2022/05/25 02:23:54;;;;;;;;;3.00;2.00;;;;;15.81;60.53;101247.06;5062709;28;45347;-57
2022/05/25 02:26:28;;;;;;;;;2.25;1.75;;;;;15.77;61.08;101245.56;5061731;28;45510;-58
2022/05/25 02:29:18;;;;;;;;;3.25;1.00;;;;;15.74;60.94;101248.47;5062558;28;45232;-57
2022/05/25 02:31:49;;;;;;;;;2.00;1.00;;;;;15.71;61.22;101253.97;5058606;28;45390;-57
2022/05/25 02:34:20;;;;;;;;;2.00;1.00;;;;;15.69;61.32;101245.28;5062535;28;45416;-57
2022/05/25 02:36:47;;;;;;;;;2.00;2.00;;;;;15.69;61.18;101244.44;5061236;28;45554;-57
2022/05/25 02:39:13;;;;;;;;;1.00;1.00;;;;;15.68;61.39;101243.59;5062735;28;45267;-57
2022/05/25 02:41:51;;;;;;;;;2.00;2.00;;;;;15.66;61.26;101250.81;5062352;28;45210;-57
2022/05/25 02:44:17;;;;;;;;;1.00;0.50;;;;;15.63;61.28;101257.19;5062760;28;45299;-56
2022/05/25 02:46:42;;;;;;;;;2.50;1.75;;;;;15.62;61.31;101262.59;5062543;28;45415;-57
2022/05/25 02:49:08;;;;;;;;;1.50;1.50;;;;;15.61;61.61;101266.22;5060720;28;45338;-58
2022/05/25 02:51:34;;;;;;;;;1.00;1.00;;;;;15.61;61.82;101268.88;5062361;28;45326;-58
2022/05/25 02:53:59;;;;;;;;;1.00;1.00;;;;;15.59;61.71;101268.13;5062314;28;45548;-57
2022/05/25 02:56:25;;;;;;;;;2.00;1.00;;;;;15.60;61.72;101267.16;5062138;28;46082;-58
2022/05/25 02:58:50;;;;;;;;;1.00;1.00;;;;;15.60;61.24;101273.31;5062214;28;45185;-58
2022/05/25 03:01:16;;;;;;;;;1.00;1.00;;;;;15.62;61.88;101284.69;5062466;28;45345;-57
2022/05/25 03:03:41;;;;;;;;;1.00;0.50;;;;;15.62;61.60;101284.69;5062319;28;45183;-57
2022/05/25 03:06:08;;;;;;;;;0.50;0.50;;;;;15.60;61.53;101280.44;5062239;28;45569;-57
2022/05/25 03:08:35;;;;;;;;;1.00;0.75;;;;;15.58;61.71;101277.91;5060863;28;45391;-57
2022/05/25 03:11:02;;;;;;;;;1.00;1.00;;;;;15.57;61.85;101285.97;5063757;28;45373;-57
2022/05/25 03:13:28;;;;;;;;;1.00;1.00;;;;;15.54;61.97;101283.53;5067947;28;45536;-57
2022/05/25 03:15:57;;;;;;;;;2.75;1.75;;;;;15.51;62.02;101286.41;5061987;28;45880;-56
2022/05/25 03:18:22;;;;;;;;;2.25;1.00;;;;;15.49;62.17;101283.88;5061755;28;45304;-57
2022/05/25 03:20:49;;;;;;;;;1.00;1.00;;;;;15.45;62.13;101290.34;5061881;28;45297;-57
2022/05/25 03:23:17;;;;;;;;;2.25;2.25;;;;;15.42;62.35;101295.88;5062062;28;45369;-57
2022/05/25 03:25:43;;;;;;;;;2.00;2.00;;;;;15.39;62.46;101296.06;5061712;28;46413;-57
2022/05/25 03:28:08;;;;;;;;;3.00;2.00;;;;;15.40;62.49;101299.56;5061725;28;45582;-57
2022/05/25 03:30:34;;;;;;;;;1.00;1.00;;;;;15.40;62.96;101304.88;5061947;28;45369;-57
2022/05/25 03:33:00;;;;;;;;;3.00;2.00;;;;;15.38;62.34;101305.00;5061703;28;45521;-56
2022/05/25 03:35:25;;;;;;;;;2.75;2.00;;;;;15.39;62.92;101308.50;5060289;28;45448;-56
2022/05/25 03:37:51;;;;;;;;;2.25;2.25;;;;;15.36;62.85;101305.13;5061488;28;45235;-57
2022/05/25 03:40:16;;;;;;;;;1.25;1.25;;;;;15.35;62.76;101318.50;5061748;28;45531;-57
2022/05/25 03:42:44;;;;;;;;;2.00;2.00;;;;;15.30;63.22;101326.78;5061754;28;45493;-56
2022/05/25 03:45:12;;;;;;;;;2.00;2.00;;;;;15.30;63.25;101331.22;5061508;28;46367;-56
2022/05/25 03:47:38;;;;;;;;;2.00;1.50;;;;;15.28;63.25;101339.31;5061313;28;45492;-57
2022/05/25 03:50:04;;;;;;;;;2.00;2.00;;;;;15.25;63.26;101342.19;5061450;28;45313;-56
2022/05/25 03:52:29;;;;;;;;;3.00;2.50;;;;;15.25;63.25;101347.50;5061396;28;45582;-57
2022/05/25 03:54:55;;;;;;;;;2.00;2.00;;;;;15.25;63.51;101352.81;5061133;28;45409;-57
2022/05/25 03:57:20;;;;;;;;;2.00;1.00;;;;;15.25;63.72;101357.28;5061480;28;45440;-56
2022/05/25 03:59:46;;;;;;;;;2.00;2.00;;;;;15.25;63.58;101354.63;5061538;28;45303;-56
2022/05/25 04:02:13;;;;;;;;;2.00;2.00;;;;;15.24;64.05;101345.78;5061298;28;45442;-56
2022/05/25 04:04:38;;;;;;;;;2.00;2.00;;;;;15.23;64.01;101352.03;5061171;28;45381;-57
2022/05/25 04:07:04;;;;;;;;;2.50;2.50;;;;;15.22;63.91;101357.47;5061109;28;45332;-56
2022/05/25 04:09:30;;;;;;;;;4.00;2.25;;;;;15.20;64.01;101354.91;5061377;28;45315;-57
2022/05/25 04:11:55;;;;;;;;;4.00;2.75;;;;;15.19;63.88;101349.72;5068254;28;45338;-56
2022/05/25 04:14:21;;;;;;;;;3.75;3.75;;;;;15.18;64.03;101354.19;5061145;28;45307;-55
2022/05/25 04:16:46;;;;;;;;;3.00;3.00;;;;;15.16;64.03;101353.41;5059757;28;45378;-55
2022/05/25 04:19:12;;;;;;;;;3.25;3.25;;;;;15.15;64.08;101354.38;5061077;28;45705;-56
2022/05/25 04:21:39;;;;;;;;;3.50;3.25;;;;;15.13;64.41;101353.63;5061310;28;45385;-56
2022/05/25 04:24:05;;;;;;;;;3.75;3.75;;;;;15.13;64.36;101352.78;5061023;28;45394;-57
2022/05/25 04:26:31;;;;;;;;;4.50;4.00;;;;;15.09;64.48;101362.78;5061035;28;45236;-56
2022/05/25 04:28:58;;;;;;;;;3.00;3.00;;;;;15.10;64.72;101363.63;5051656;28;45508;-56
2022/05/25 04:31:23;;;;;;;;;5.00;3.25;;;;;15.11;64.52;101365.31;5061130;28;45250;-56
2022/05/25 04:33:49;;;;;;;;;3.75;3.75;;;;;15.16;64.38;101363.19;5060633;28;45425;-55
2022/05/25 04:36:15;;;;;;;;;4.75;3.75;;;;;15.18;64.48;101370.09;5061004;28;45390;-57
2022/05/25 04:38:41;;;;;;;;;28.75;14.50;;;;;15.19;66.05;101363.00;5060698;28;45247;-58
2022/05/25 04:41:07;;;;;;;;;8.25;4.00;;;;;15.14;65.37;101370.41;5060890;28;46167;-58
2022/05/25 04:43:32;;;;;;;;;6.00;5.00;;;;;15.12;64.73;101381.13;5060482;28;46237;-58
2022/05/25 04:46:03;;;;;;;;;3.00;3.00;;;;;15.12;64.62;101381.13;5060801;28;45391;-57
2022/05/25 04:48:29;;;;;;;;;3.50;3.50;;;;;15.12;65.13;101389.09;5059259;28;45345;-57
2022/05/25 04:50:56;;;;;;;;;6.50;5.00;;;;;15.13;64.73;101380.19;5062923;28;45363;-57
2022/05/25 04:53:23;;;;;;;;;2.00;2.00;;;;;15.15;65.04;101388.03;5064162;28;45438;-58
2022/05/25 04:58:33;;;;;;;;;5.00;4.25;;;;;15.14;65.07;101395.13;5064006;28;45334;-57
2022/05/25 05:00:59;;;;;;;;;6.00;4.00;;;;;15.15;64.79;101403.94;5064229;28;45294;-57
2022/05/25 05:03:26;;;;;;;;;7.00;5.50;;;;;15.16;64.85;101406.50;5063907;28;46057;-57
2022/05/25 05:05:53;;;;;;;;;5.00;4.00;;;;;15.18;64.79;101401.94;5063855;28;45176;-57
2022/05/25 05:08:18;;;;;;;;;5.00;4.00;;;;;15.20;64.96;101402.69;5064271;28;45217;-57
2022/05/25 05:10:44;;;;;;;;;6.00;5.25;;;;;15.22;64.79;101408.72;5063759;28;45425;-57
2022/05/25 05:13:11;;;;;;;;;6.25;6.00;;;;;15.24;64.91;101408.63;5074049;28;45375;-56
2022/05/25 05:15:42;;;;;;;;;7.75;5.00;;;;;15.26;64.69;101406.75;5063678;28;45633;-57
2022/05/25 05:18:08;;;;;;;;;5.50;5.25;;;;;15.29;64.19;101417.13;5063876;28;45312;-57
2022/05/25 05:20:34;;;;;;;;;7.75;5.00;;;;;15.28;64.31;101420.75;5063821;28;45473;-57
2022/05/25 05:22:59;;;;;;;;;7.75;5.00;;;;;15.33;64.03;101422.16;5063792;28;45676;-57
2022/05/25 05:25:26;;;;;;;;;6.00;6.00;;;;;15.35;63.70;101428.19;5063441;28;45341;-57
2022/05/25 05:27:52;;;;;;;;;5.25;5.00;;;;;15.37;63.68;101420.13;5062373;28;45365;-57
2022/05/25 05:30:21;;;;;;;;;6.00;5.00;;;;;15.38;63.70;101424.47;5063565;28;45560;-57
2022/05/25 05:32:46;;;;;;;;;7.25;3.50;;;;;15.47;63.61;101418.53;5063369;28;46143;-57
2022/05/25 05:35:12;;;;;;;;;5.00;4.50;;;;;15.56;63.08;101417.03;5063485;28;45612;-57
2022/05/25 05:37:41;;;;;;;;;6.25;5.50;;;;;15.62;63.30;101404.22;5063870;28;45283;-57
2022/05/25 05:40:10;;;;;;;;;6.00;5.00;;;;;15.68;62.40;101402.09;5063278;28;45310;-57
2022/05/25 05:42:41;;;;;;;;;3.50;3.00;;;;;15.75;62.31;101400.72;5070688;28;45210;-57
2022/05/25 05:45:12;;;;;;;;;3.50;3.00;;;;;15.86;62.47;101406.94;5063600;28;45494;-57
2022/05/25 05:47:45;;;;;;;;;3.50;3.50;;;;;15.94;61.95;101406.41;5068804;28;45330;-58
2022/05/25 05:50:11;;;;;;;;;7.75;6.00;;;;;16.01;61.71;101396.19;5064234;28;45360;-56
2022/05/25 05:52:37;;;;;;;;;4.25;3.00;;;;;16.07;61.46;101398.44;5067887;28;45383;-56
2022/05/25 05:55:04;;;;;;;;;3.50;3.00;;;;;16.07;60.90;101398.44;5062848;28;45256;-57
2022/05/25 05:57:33;;;;;;;;;4.25;4.00;;;;;16.08;61.19;101400.13;5073718;28;45374;-57
2022/05/25 05:59:59;;;;;;;;;4.00;4.00;;;;;16.15;60.92;101402.22;5062891;28;45478;-57
2022/05/25 06:02:24;;;;;;;;;5.00;3.25;;;;;16.21;61.00;101410.72;5062671;28;45486;-58
2022/05/25 06:04:50;;;;;;;;;3.00;3.00;;;;;16.27;60.72;101410.25;5063101;28;45245;-58
2022/05/25 06:07:15;;;;;;;;;4.00;4.00;;;;;16.33;60.05;101415.97;5063037;28;45547;-57
2022/05/25 06:09:41;;;;;;;;;5.25;4.00;;;;;16.37;59.89;101422.78;5063066;28;45371;-56
2022/05/25 06:12:07;;;;;;;;;3.00;3.00;;;;;16.42;59.91;101433.94;5072130;28;45899;-57
2022/05/25 06:14:32;;;;;;;;;3.00;3.00;;;;;16.50;59.83;101438.69;5061610;28;45293;-57
2022/05/25 06:19:42;;;;;;;;;6.25;3.50;;;;;16.60;59.70;101442.41;5062772;28;45364;-57
2022/05/25 06:22:12;;;;;;;;;4.00;3.25;;;;;16.67;59.00;101445.47;5074821;28;45896;-57
2022/05/25 06:24:41;;;;;;;;;5.75;5.00;;;;;16.74;58.18;101449.38;5063330;28;45412;-57
2022/05/25 06:27:08;;;;;;;;;3.75;2.25;;;;;16.81;58.36;101447.97;5073411;28;45431;-56
2022/05/25 06:29:42;;;;;;;;;3.50;3.00;;;;;16.87;57.41;101457.31;5061830;28;45605;-58
2022/05/25 06:32:10;;;;;;;;;3.00;1.25;;;;;16.92;57.07;101461.34;5061883;28;45186;-57
2022/05/25 06:34:37;;;;;;;;;2.75;2.00;;;;;16.96;56.99;101460.13;5062350;28;45406;-57
2022/05/25 06:37:03;;;;;;;;;4.00;3.00;;;;;17.03;56.24;101461.38;5062771;28;45275;-57
2022/05/25 06:39:34;;;;;;;;;3.00;1.75;;;;;17.08;56.16;101465.50;5062113;28;45544;-57
2022/05/25 06:42:00;;;;;;;;;2.00;2.00;;;;;17.12;56.27;101472.28;5061871;28;46064;-54
2022/05/25 06:44:25;;;;;;;;;3.00;2.00;;;;;17.17;55.87;101478.97;5062007;28;45288;-54
2022/05/25 06:46:51;;;;;;;;;2.50;2.00;;;;;17.24;55.45;101484.69;5060818;28;45370;-53
2022/05/25 06:49:17;;;;;;;;;2.25;2.00;;;;;17.23;55.06;101489.19;5062048;28;45436;-57
2022/05/25 06:51:43;;;;;;;;;5.50;3.75;;;;;17.22;55.03;101476.81;5062164;28;46007;-55
2022/05/25 06:54:11;;;;;;;;;6.75;4.00;;;;;17.19;54.73;101479.69;5061971;28;45345;-51
2022/05/25 06:56:37;;;;;;;;;3.00;2.00;;;;;17.17;54.40;101478.13;5062136;28;45396;-55
2022/05/25 06:59:03;;;;;;;;;4.50;3.00;;;;;17.18;54.37;101483.34;5061903;28;45287;-55
2022/05/25 07:01:28;;;;;;;;;3.50;2.75;;;;;17.19;54.22;101490.34;5062014;28;45371;-50
2022/05/25 07:03:54;;;;;;;;;3.00;2.00;;;;;17.20;53.87;101494.72;5061564;28;45236;-50
2022/05/25 07:06:21;;;;;;;;;6.50;2.25;;;;;17.22;54.07;101489.25;5062244;28;45449;-50
2022/05/25 07:08:47;;;;;;;;;4.50;2.50;;;;;17.28;54.22;101489.66;5053938;28;46721;-51
2022/05/25 07:11:13;;;;;;;;;3.50;2.00;;;;;17.33;53.76;101484.00;5055466;28;45541;-51
2022/05/25 07:13:40;;;;;;;;;3.00;3.00;;;;;17.33;53.59;101484.00;5062759;28;45398;-50
2022/05/25 07:16:13;;;;;;;;;2.75;2.00;;;;;17.38;53.72;101497.81;5061268;28;45409;-47
2022/05/25 07:18:41;;;;;;;;;2.00;2.00;;;;;17.43;53.14;101503.63;5059948;28;45315;-50
2022/05/25 07:21:16;;;;;;;;;0.00;0.00;;;;;17.43;51.69;101498.31;5061014;28;45349;-49
2022/05/25 07:23:43;;;;;;;;;4.00;1.00;;;;;17.42;51.77;101511.75;5058456;28;45235;-51
2022/05/25 07:26:10;;;;;;;;;1.00;1.00;;;;;17.39;51.75;101512.00;5058828;28;45315;-53
2022/05/25 07:28:36;;;;;;;;;1.00;1.00;;;;;17.40;51.80;101519.00;5061202;28;45979;-52
2022/05/25 07:31:07;;;;;;;;;3.00;2.00;;;;;17.44;51.92;101525.78;5059622;28;45295;-51
2022/05/25 07:33:34;;;;;;;;;2.00;1.75;;;;;17.45;52.27;101525.66;5067464;28;45196;-57
2022/05/25 07:36:00;;;;;;;;;1.75;0.75;;;;;17.48;51.95;101525.44;5061099;28;45329;-56
2022/05/25 07:38:29;;;;;;;;;3.00;0.75;;;;;17.47;51.49;101528.25;5061342;28;45563;-54
2022/05/25 07:40:57;;;;;;;;;0.25;0.25;;;;;17.47;51.80;101525.56;5060814;28;45467;-57
2022/05/25 07:43:31;;;;;;;;;2.25;0.75;;;;;17.52;51.38;101529.56;5058040;28;45413;-46
2022/05/25 07:45:56;;;;;;;;;2.75;1.00;;;;;17.57;51.80;101531.88;5051939;28;45233;-47
2022/05/25 07:48:22;;;;;;;;;2.00;1.00;;;;;17.64;51.76;101530.47;5058877;28;45287;-48
2022/05/25 07:50:48;;;;;;;;;0.75;0.50;;;;;17.68;51.52;101534.56;5059903;28;45407;-53
2022/05/25 07:56:01;;;;;;;;;1.00;1.00;;;;;17.70;51.56;101529.16;5060643;28;45481;-48
2022/05/25 07:58:27;;;;;;;;;1.75;1.00;;;;;17.73;51.56;101535.13;5060596;28;45330;-48
2022/05/25 08:00:55;;;;;;;;;3.00;1.00;;;;;17.77;51.73;101538.38;5058422;28;47079;-47
2022/05/25 08:06:06;;;;;;;;;0.00;0.00;;;;;17.75;51.50;101537.66;5055233;28;45307;-48
2022/05/25 08:08:31;;;;;;;;;4.50;1.00;;;;;17.80;51.13;101541.69;5060936;28;45510;-46
2022/05/25 08:11:09;;;;;;;;;0.00;0.00;;;;;17.84;51.56;101547.59;5060631;28;45488;-48
2022/05/25 08:13:38;;;;;;;;;0.00;0.00;;;;;17.88;51.29;101541.09;5066878;28;45417;-52
2022/05/25 08:16:04;;;;;;;;;2.75;1.00;;;;;17.96;51.01;101548.50;5060599;28;45297;-47
2022/05/25 08:18:30;;;;;;;;;1.00;1.00;;;;;17.99;49.99;101545.56;5054760;28;45520;-50
2022/05/25 08:20:55;;;;;;;;;1.00;1.00;;;;;18.01;49.87;101536.50;5060421;28;45978;-52
2022/05/25 08:23:21;;;;;;;;;1.75;1.00;;;;;18.02;49.58;101548.88;5060556;28;45398;-47
2022/05/25 08:25:47;;;;;;;;;2.50;0.00;;;;;18.05;49.69;101540.63;5059539;28;45410;-50
2022/05/25 08:28:12;;;;;;;;;0.25;0.25;;;;;18.06;48.81;101546.81;5055976;28;45358;-47
2022/05/25 08:30:41;;;;;;;;;0.00;0.00;;;;;18.06;47.60;101546.81;5059475;28;46189;-48
2022/05/25 08:33:08;;;;;;;;;0.75;0.75;;;;;18.04;46.89;101546.06;5060016;28;45318;-48
2022/05/25 08:35:33;;;;;;;;;1.25;1.00;;;;;18.02;47.06;101546.19;5047241;28;45392;-47
2022/05/25 08:37:59;;;;;;;;;1.00;0.50;;;;;18.07;46.60;101544.00;5060862;28;45326;-49
2022/05/25 08:40:27;;;;;;;;;1.25;0.00;;;;;18.10;46.10;101545.59;5060551;28;45965;-47
2022/05/25 08:43:15;;;;;;;;;0.00;0.00;;;;;18.14;45.91;101547.06;5059485;28;45244;-48
2022/05/25 08:45:49;;;;;;;;;0.00;0.00;;;;;18.16;45.02;101546.91;5060868;28;45452;-50
2022/05/25 08:48:18;;;;;;;;;1.50;0.00;;;;;18.19;44.95;101546.69;5060441;28;45233;-50
2022/05/25 08:50:49;;;;;;;;;1.00;0.00;;;;;18.21;44.86;101544.75;5060367;28;45473;-49
2022/05/25 08:53:18;;;;;;;;;4.25;1.00;;;;;18.24;44.91;101548.03;5060252;28;45316;-45
2022/05/25 08:56:03;;;;;;;;;3.00;0.25;;;;;18.28;45.17;101556.66;5060112;28;45338;-46
2022/05/25 08:58:42;;;;;;;;;3.00;0.00;;;;;18.27;45.02;101562.94;5060600;28;45362;-46
2022/05/25 09:01:11;;;;;;;;;1.00;0.25;;;;;18.29;44.52;101551.19;5058766;28;45568;-48
2022/05/25 09:03:54;;;;;;;;;0.00;0.00;;;;;18.37;44.79;101556.75;5060089;28;45411;-48
2022/05/25 09:06:52;;;;;;;;;2.00;1.00;;;;;18.45;44.68;101565.97;5060496;28;45254;-46
2022/05/25 09:09:37;;;;;;;;;1.00;0.00;;;;;18.52;44.65;101569.84;5060337;28;45513;-45
2022/05/25 09:12:44;;;;;;;;;2.00;1.00;;;;;18.58;44.34;101567.56;5064508;28;46059;-45
2022/05/25 09:15:16;;;;;;;;;2.75;0.00;;;;;18.62;44.09;101568.16;5059931;28;45465;-46
2022/05/25 09:17:51;;;;;;;;;0.00;0.00;;;;;18.61;44.58;101575.31;5063982;28;45373;-47
2022/05/25 09:20:22;;;;;;;;;0.75;0.00;;;;;18.63;44.02;101561.84;5060140;28;45452;-47
2022/05/25 09:22:47;;;;;;;;;5.00;0.50;;;;;18.69;43.96;101553.38;5069660;28;46093;-46
2022/05/25 09:25:14;;;;;;;;;4.00;2.00;;;;;18.78;43.93;101559.78;5060018;28;45172;-46
2022/05/25 09:27:45;;;;;;;;;1.00;0.00;;;;;18.87;43.80;101557.22;5060295;28;45311;-45
2022/05/25 09:30:12;;;;;;;;;1.50;0.00;;;;;18.94;43.60;101560.25;5060067;28;45320;-45
2022/05/25 09:32:58;;;;;;;;;0.75;0.00;;;;;18.95;43.55;101552.09;5059500;28;45552;-47
2022/05/25 09:35:32;;;;;;;;;0.00;0.00;;;;;18.96;43.69;101552.97;5059990;28;45260;-44
2022/05/25 09:38:05;;;;;;;;;0.00;0.00;;;;;19.01;44.13;101549.91;5063540;28;45220;-45
2022/05/25 09:40:43;;;;;;;;;4.00;0.00;;;;;19.12;43.87;101558.75;5058932;28;47357;-45
2022/05/25 09:43:14;;;;;;;;;1.75;1.25;;;;;19.20;42.65;101550.97;5062196;28;45237;-45
2022/05/25 09:45:47;;;;;;;;;1.00;0.25;;;;;19.23;42.80;101547.19;5062360;28;45265;-45
2022/05/25 09:48:13;;;;;;;;;4.75;1.00;;;;;19.30;43.00;101556.38;5063166;28;45327;-45
2022/05/25 09:50:44;;;;;;;;;0.50;0.50;;;;;19.36;42.72;101563.91;5062115;28;45512;-45
2022/05/25 09:53:12;;;;;;;;;0.25;0.25;;;;;19.42;43.46;101568.69;5063242;28;45234;-45
2022/05/25 09:55:46;;;;;;;;;0.00;0.00;;;;;19.50;43.35;101560.88;5062164;28;46356;-47
2022/05/25 09:58:30;;;;;;;;;1.25;0.00;;;;;19.60;42.81;101568.19;5056535;28;45438;-51
2022/05/25 10:01:23;;;;;;;;;3.50;1.25;;;;;19.66;42.75;101563.16;5050522;28;45327;-45
2022/05/25 10:03:50;;;;;;;;;1.00;0.00;;;;;19.70;42.47;101572.63;5062237;28;46256;-47
2022/05/25 10:06:24;;;;;;;;;6.00;1.25;;;;;19.76;42.88;101569.44;5062880;28;45388;-48
2022/05/25 10:09:05;;;;;;;;;3.25;2.50;;;;;19.85;42.05;101561.63;5060496;28;45474;-49
2022/05/25 10:11:39;;;;;;;;;7.50;5.25;;;;;19.89;42.25;101560.34;5061695;28;45366;-49
2022/05/25 10:14:31;;;;;;;;;4.25;2.50;;;;;19.96;41.57;101564.19;5059635;28;46397;-48
2022/05/25 10:17:31;;;;;;;;;1.00;0.75;;;;;20.00;41.31;101562.97;5062333;28;45365;-45
2022/05/25 10:19:58;;;;;;;;;0.00;0.00;;;;;20.06;40.72;101576.69;5060828;28;45176;-45
2022/05/25 10:22:37;;;;;;;;;0.00;0.00;;;;;20.10;41.25;101577.25;5056959;28;45485;-46
2022/05/25 10:25:12;;;;;;;;;0.00;0.00;;;;;20.18;41.03;101568.56;5061312;28;45379;-45
2022/05/25 10:27:41;;;;;;;;;2.00;0.00;;;;;20.23;40.38;101567.19;5061664;28;46583;-48
2022/05/25 10:38:47;;;;;;;;;6.25;6.25;;;;;20.27;41.00;101571.28;5061732;28;45405;-47
2022/05/25 10:44:22;;;;;;;;;2.00;1.00;;;;;20.28;41.23;101564.94;5064690;28;45322;-52
2022/05/25 10:46:54;;;;;;;;;0.75;0.00;;;;;20.34;40.81;101556.38;5058341;28;45283;-46
2022/05/25 10:49:23;;;;;;;;;1.75;1.75;;;;;20.39;40.69;101560.50;5053270;28;45273;-46
2022/05/25 10:51:59;;;;;;;;;4.50;3.00;;;;;20.43;40.66;101556.56;5061172;28;45500;-53
2022/05/25 10:54:46;;;;;;;;;0.50;0.50;;;;;20.47;40.23;101552.69;5060729;28;45561;-50
2022/05/25 10:57:26;;;;;;;;;3.00;1.00;;;;;20.50;39.95;101557.75;5063666;28;46285;-50
2022/05/25 11:00:03;;;;;;;;;1.00;1.00;;;;;20.58;39.57;101565.94;5061271;28;45242;-49
2022/05/25 11:02:50;;;;;;;;;1.00;0.50;;;;;20.62;39.35;101562.88;5061174;28;45225;-48
2022/05/25 11:05:56;;;;;;;;;0.25;0.25;;;;;20.65;38.82;101559.06;5060470;28;45394;-49
2022/05/25 11:08:46;;;;;;;;;1.00;0.25;;;;;20.67;39.61;101558.94;5060354;28;45450;-52
2022/05/25 11:11:27;;;;;;;;;0.00;0.00;;;;;20.79;39.72;101568.56;5063292;28;45701;-50
2022/05/25 11:14:01;;;;;;;;;0.00;0.00;;;;;20.87;38.88;101561.53;5063043;28;45456;-50
2022/05/25 11:16:45;;;;;;;;;0.00;0.00;;;;;20.94;38.19;101564.50;5061323;28;45533;-47
2022/05/25 11:19:31;;;;;;;;;0.00;0.00;;;;;21.00;38.17;101571.13;5058313;28;45484;-49
2022/05/25 11:22:38;;;;;;;;;1.00;0.00;;;;;21.08;38.44;101571.28;5057953;28;45457;-47
2022/05/25 11:25:20;;;;;;;;;0.00;0.00;;;;;21.11;38.87;101563.81;5021033;28;45299;-47
2022/05/25 11:28:11;;;;;;;;;0.00;0.00;;;;;21.04;39.00;101570.72;5084853;27;45336;-49
2022/05/25 11:30:54;;;;;;;;;2.00;0.00;;;;;21.10;38.76;101561.28;5060871;28;46058;-45
2022/05/25 11:33:32;;;;;;;;;6.00;3.50;;;;;21.15;38.63;101557.19;5064160;28;45181;-46
2022/05/25 11:36:16;;;;;;;;;0.00;0.00;;;;;21.27;39.40;101565.13;5061599;28;45329;-49
2022/05/25 11:38:45;;;;;;;;;1.50;0.00;;;;;21.34;38.47;101566.28;5057973;28;45332;-51
2022/05/25 11:41:16;;;;;;;;;1.75;1.00;;;;;21.33;38.70;101567.25;5055817;28;45395;-50
2022/05/25 11:44:01;;;;;;;;;0.00;0.00;;;;;21.38;37.99;101562.31;5061067;28;45193;-47
2022/05/25 11:46:50;;;;;;;;;3.00;2.75;;;;;21.33;37.57;101562.75;5061121;28;45240;-50
2022/05/25 11:49:37;;;;;;;;;5.25;5.25;;;;;21.26;38.07;101556.22;5052708;28;45700;-48
2022/05/25 11:52:27;;;;;;;;;0.00;0.00;;;;;21.15;38.14;101559.88;5060698;28;45365;-48
2022/05/25 11:55:20;;;;;;;;;0.50;0.00;;;;;21.10;39.09;101572.00;5056725;28;45364;-46
2022/05/25 11:58:01;;;;;;;;;0.50;0.00;;;;;21.08;38.89;101563.25;5053305;28;45531;-46
2022/05/25 12:00:45;;;;;;;;;0.00;0.00;;;;;21.17;38.70;101557.03;5044307;28;46067;-48
2022/05/25 12:03:30;;;;;;;;;2.75;1.00;;;;;21.25;38.89;101559.03;5038506;28;45511;-46
2022/05/25 12:06:22;;;;;;;;;0.00;0.00;;;;;21.30;39.32;101567.53;5045607;28;45535;-48
2022/05/25 12:09:00;;;;;;;;;0.50;0.50;;;;;21.36;38.92;101558.94;5044579;28;45356;-51
2022/05/25 12:11:40;;;;;;;;;0.00;0.00;;;;;21.42;39.04;101559.22;5039658;28;45436;-59
2022/05/25 12:14:36;;;;;;;;;0.50;0.00;;;;;21.53;38.68;101552.00;5052365;28;45289;-64
2022/05/25 12:17:19;;;;;;;;;0.00;0.00;;;;;21.51;38.67;101556.69;5052319;28;45328;-58